sensor_id;sensor_type;location;lat;lon;timestamp;temperature;humidity
19330;DHT22;9799;48.214;16.388;2023-12-29T00:02:27;4.30;99.90
19330;DHT22;9799;48.214;16.388;2023-12-29T00:05:50;4.30;99.90
19330;DHT22;9799;48.214;16.388;2023-12-29T00:09:11;4.30;99.90
19330;DHT22;9799;48.214;16.388;2023-12-29T00:12:32;4.40;99.90
19330;DHT22;9799;48.214;16.388;2023-12-29T00:15:55;4.40;99.90
19330;DHT22;9799;48.214;16.388;2023-12-29T00:19:16;4.40;99.90
19330;DHT22;9799;48.214;16.388;2023-12-29T00:22:39;4.40;99.90
19330;DHT22;9799;48.214;16.388;2023-12-29T00:26:00;4.60;99.90
19330;DHT22;9799;48.214;16.388;2023-12-29T00:29:21;4.60;99.90
19330;DHT22;9799;48.214;16.388;2023-12-29T00:32:42;4.60;99.90
19330;DHT22;9799;48.214;16.388;2023-12-29T00:36:04;4.50;99.90
19330;DHT22;9799;48.214;16.388;2023-12-29T00:39:26;4.60;99.90
19330;DHT22;9799;48.214;16.388;2023-12-29T00:42:50;4.50;99.90
19330;DHT22;9799;48.214;16.388;2023-12-29T00:46:14;4.70;99.90
19330;DHT22;9799;48.214;16.388;2023-12-29T00:49:38;4.70;99.90
19330;DHT22;9799;48.214;16.388;2023-12-29T00:53:00;4.60;99.90
19330;DHT22;9799;48.214;16.388;2023-12-29T00:56:23;4.50;99.90
19330;DHT22;9799;48.214;16.388;2023-12-29T00:59:47;4.70;99.90
19330;DHT22;9799;48.214;16.388;2023-12-29T01:03:08;4.80;99.90
19330;DHT22;9799;48.214;16.388;2023-12-29T01:06:29;4.80;99.90
19330;DHT22;9799;48.214;16.388;2023-12-29T01:09:50;4.90;99.90
19330;DHT22;9799;48.214;16.388;2023-12-29T01:13:12;4.80;99.90
19330;DHT22;9799;48.214;16.388;2023-12-29T01:16:34;4.80;99.90
19330;DHT22;9799;48.214;16.388;2023-12-29T01:19:55;4.70;99.90
19330;DHT22;9799;48.214;16.388;2023-12-29T01:23:16;4.70;99.90
19330;DHT22;9799;48.214;16.388;2023-12-29T01:26:38;4.70;99.90
19330;DHT22;9799;48.214;16.388;2023-12-29T01:30:01;4.70;99.90
19330;DHT22;9799;48.214;16.388;2023-12-29T01:33:22;4.70;99.90
19330;DHT22;9799;48.214;16.388;2023-12-29T01:36:43;4.70;99.90
19330;DHT22;9799;48.214;16.388;2023-12-29T01:40:05;4.70;99.90
19330;DHT22;9799;48.214;16.388;2023-12-29T01:43:26;4.80;99.90
19330;DHT22;9799;48.214;16.388;2023-12-29T01:46:50;4.90;99.90
19330;DHT22;9799;48.214;16.388;2023-12-29T01:50:12;4.90;99.90
19330;DHT22;9799;48.214;16.388;2023-12-29T01:53:33;4.90;99.90
19330;DHT22;9799;48.214;16.388;2023-12-29T01:56:57;4.90;99.90
19330;DHT22;9799;48.214;16.388;2023-12-29T02:00:20;4.90;99.90
19330;DHT22;9799;48.214;16.388;2023-12-29T02:03:43;4.90;99.90
19330;DHT22;9799;48.214;16.388;2023-12-29T02:07:05;4.90;99.90
19330;DHT22;9799;48.214;16.388;2023-12-29T02:10:26;4.90;99.90
19330;DHT22;9799;48.214;16.388;2023-12-29T02:13:47;4.90;99.90
19330;DHT22;9799;48.214;16.388;2023-12-29T02:17:13;4.80;99.90
19330;DHT22;9799;48.214;16.388;2023-12-29T02:20:37;4.70;99.90
19330;DHT22;9799;48.214;16.388;2023-12-29T02:23:59;4.70;99.90
19330;DHT22;9799;48.214;16.388;2023-12-29T02:27:27;4.70;99.90
19330;DHT22;9799;48.214;16.388;2023-12-29T02:30:58;4.80;99.90
19330;DHT22;9799;48.214;16.388;2023-12-29T02:34:22;4.80;99.90
19330;DHT22;9799;48.214;16.388;2023-12-29T02:37:44;4.90;99.90
19330;DHT22;9799;48.214;16.388;2023-12-29T02:41:06;4.90;99.90
19330;DHT22;9799;48.214;16.388;2023-12-29T02:44:28;5.00;99.90
19330;DHT22;9799;48.214;16.388;2023-12-29T02:47:50;5.00;99.90
19330;DHT22;9799;48.214;16.388;2023-12-29T02:51:11;5.10;99.90
19330;DHT22;9799;48.214;16.388;2023-12-29T02:54:32;5.00;99.90
19330;DHT22;9799;48.214;16.388;2023-12-29T02:57:53;5.00;99.90
19330;DHT22;9799;48.214;16.388;2023-12-29T03:01:16;5.20;99.90
19330;DHT22;9799;48.214;16.388;2023-12-29T03:04:37;5.50;99.90
19330;DHT22;9799;48.214;16.388;2023-12-29T03:07:58;5.50;99.90
19330;DHT22;9799;48.214;16.388;2023-12-29T03:11:19;5.50;99.90
19330;DHT22;9799;48.214;16.388;2023-12-29T03:14:40;5.40;99.90
19330;DHT22;9799;48.214;16.388;2023-12-29T03:18:03;5.30;99.90
19330;DHT22;9799;48.214;16.388;2023-12-29T03:21:24;5.30;99.90
19330;DHT22;9799;48.214;16.388;2023-12-29T03:24:45;5.30;99.90
19330;DHT22;9799;48.214;16.388;2023-12-29T03:28:06;5.30;99.90
19330;DHT22;9799;48.214;16.388;2023-12-29T03:31:27;5.30;99.90
19330;DHT22;9799;48.214;16.388;2023-12-29T03:34:50;5.50;99.90
19330;DHT22;9799;48.214;16.388;2023-12-29T03:38:11;5.60;99.90
19330;DHT22;9799;48.214;16.388;2023-12-29T03:41:32;5.60;99.90
19330;DHT22;9799;48.214;16.388;2023-12-29T03:44:53;5.70;99.90
19330;DHT22;9799;48.214;16.388;2023-12-29T03:48:17;5.80;99.90
19330;DHT22;9799;48.214;16.388;2023-12-29T03:51:53;5.80;99.90
19330;DHT22;9799;48.214;16.388;2023-12-29T03:55:14;5.90;99.90
19330;DHT22;9799;48.214;16.388;2023-12-29T03:58:36;5.90;99.90
19330;DHT22;9799;48.214;16.388;2023-12-29T04:01:56;5.90;99.90
19330;DHT22;9799;48.214;16.388;2023-12-29T04:05:18;6.00;99.90
19330;DHT22;9799;48.214;16.388;2023-12-29T04:08:41;6.00;99.90
19330;DHT22;9799;48.214;16.388;2023-12-29T04:12:03;6.00;99.90
19330;DHT22;9799;48.214;16.388;2023-12-29T04:15:24;6.00;99.90
19330;DHT22;9799;48.214;16.388;2023-12-29T04:18:45;6.00;99.90
19330;DHT22;9799;48.214;16.388;2023-12-29T04:22:06;6.00;99.90
19330;DHT22;9799;48.214;16.388;2023-12-29T04:25:29;6.00;99.90
19330;DHT22;9799;48.214;16.388;2023-12-29T04:28:50;6.00;99.90
19330;DHT22;9799;48.214;16.388;2023-12-29T04:32:11;6.10;99.90
19330;DHT22;9799;48.214;16.388;2023-12-29T04:35:32;6.20;99.90
19330;DHT22;9799;48.214;16.388;2023-12-29T04:38:54;6.50;99.90
19330;DHT22;9799;48.214;16.388;2023-12-29T04:42:16;6.60;99.90
19330;DHT22;9799;48.214;16.388;2023-12-29T04:45:37;6.70;99.90
19330;DHT22;9799;48.214;16.388;2023-12-29T04:48:59;7.50;99.90
19330;DHT22;9799;48.214;16.388;2023-12-29T04:52:20;7.90;99.90
19330;DHT22;9799;48.214;16.388;2023-12-29T04:55:41;8.40;99.90
19330;DHT22;9799;48.214;16.388;2023-12-29T04:59:03;9.10;99.90
19330;DHT22;9799;48.214;16.388;2023-12-29T05:02:25;9.60;99.90
19330;DHT22;9799;48.214;16.388;2023-12-29T05:05:46;9.90;99.90
19330;DHT22;9799;48.214;16.388;2023-12-29T05:09:07;10.20;99.90
19330;DHT22;9799;48.214;16.388;2023-12-29T05:12:28;10.40;99.90
19330;DHT22;9799;48.214;16.388;2023-12-29T05:15:51;10.40;99.90
19330;DHT22;9799;48.214;16.388;2023-12-29T05:19:12;10.50;99.90
19330;DHT22;9799;48.214;16.388;2023-12-29T05:22:33;10.50;99.90
19330;DHT22;9799;48.214;16.388;2023-12-29T05:25:54;10.50;99.90
19330;DHT22;9799;48.214;16.388;2023-12-29T05:29:15;10.40;99.90
19330;DHT22;9799;48.214;16.388;2023-12-29T05:32:38;10.50;99.90
19330;DHT22;9799;48.214;16.388;2023-12-29T05:36:04;10.50;99.90
19330;DHT22;9799;48.214;16.388;2023-12-29T05:39:26;10.50;99.90
19330;DHT22;9799;48.214;16.388;2023-12-29T05:42:47;10.50;99.90
19330;DHT22;9799;48.214;16.388;2023-12-29T05:46:09;10.40;99.90
19330;DHT22;9799;48.214;16.388;2023-12-29T05:49:32;10.20;99.90
19330;DHT22;9799;48.214;16.388;2023-12-29T05:52:58;10.20;99.90
19330;DHT22;9799;48.214;16.388;2023-12-29T05:56:19;10.10;99.90
19330;DHT22;9799;48.214;16.388;2023-12-29T05:59:41;10.20;99.90
19330;DHT22;9799;48.214;16.388;2023-12-29T06:03:02;10.30;99.90
19330;DHT22;9799;48.214;16.388;2023-12-29T06:06:25;10.30;99.90
19330;DHT22;9799;48.214;16.388;2023-12-29T06:09:46;8.90;99.90
19330;DHT22;9799;48.214;16.388;2023-12-29T06:13:07;7.80;99.90
19330;DHT22;9799;48.214;16.388;2023-12-29T06:16:29;7.40;99.90
19330;DHT22;9799;48.214;16.388;2023-12-29T06:19:50;7.00;99.90
19330;DHT22;9799;48.214;16.388;2023-12-29T06:23:14;7.00;99.90
19330;DHT22;9799;48.214;16.388;2023-12-29T06:26:36;6.90;99.90
19330;DHT22;9799;48.214;16.388;2023-12-29T06:30:01;6.80;99.90
19330;DHT22;9799;48.214;16.388;2023-12-29T06:33:23;6.50;99.90
19330;DHT22;9799;48.214;16.388;2023-12-29T06:36:44;6.20;99.90
19330;DHT22;9799;48.214;16.388;2023-12-29T06:40:08;6.00;99.90
19330;DHT22;9799;48.214;16.388;2023-12-29T06:43:29;5.80;99.90
19330;DHT22;9799;48.214;16.388;2023-12-29T06:46:50;5.80;99.90
19330;DHT22;9799;48.214;16.388;2023-12-29T06:50:12;5.80;99.90
19330;DHT22;9799;48.214;16.388;2023-12-29T06:53:33;5.90;99.90
19330;DHT22;9799;48.214;16.388;2023-12-29T06:56:56;6.00;99.90
19330;DHT22;9799;48.214;16.388;2023-12-29T07:00:18;6.10;99.90
19330;DHT22;9799;48.214;16.388;2023-12-29T07:03:39;6.10;99.90
19330;DHT22;9799;48.214;16.388;2023-12-29T07:07:01;6.30;99.90
19330;DHT22;9799;48.214;16.388;2023-12-29T07:10:22;6.30;99.90
19330;DHT22;9799;48.214;16.388;2023-12-29T07:13:45;6.30;99.90
19330;DHT22;9799;48.214;16.388;2023-12-29T07:17:06;6.10;99.90
19330;DHT22;9799;48.214;16.388;2023-12-29T07:20:27;5.90;99.90
19330;DHT22;9799;48.214;16.388;2023-12-29T07:23:48;5.90;99.90
19330;DHT22;9799;48.214;16.388;2023-12-29T07:27:09;6.00;99.90
19330;DHT22;9799;48.214;16.388;2023-12-29T07:30:32;5.90;99.90
19330;DHT22;9799;48.214;16.388;2023-12-29T07:33:53;6.00;99.90
19330;DHT22;9799;48.214;16.388;2023-12-29T07:37:15;6.00;99.90
19330;DHT22;9799;48.214;16.388;2023-12-29T07:40:36;6.00;99.90
19330;DHT22;9799;48.214;16.388;2023-12-29T07:43:57;6.00;99.90
19330;DHT22;9799;48.214;16.388;2023-12-29T07:47:20;5.90;99.90
19330;DHT22;9799;48.214;16.388;2023-12-29T07:50:41;5.80;99.90
19330;DHT22;9799;48.214;16.388;2023-12-29T07:54:02;5.80;99.90
19330;DHT22;9799;48.214;16.388;2023-12-29T07:57:23;5.80;99.90
19330;DHT22;9799;48.214;16.388;2023-12-29T08:00:46;6.00;99.90
19330;DHT22;9799;48.214;16.388;2023-12-29T08:04:08;6.30;99.90
19330;DHT22;9799;48.214;16.388;2023-12-29T08:07:29;5.90;99.90
19330;DHT22;9799;48.214;16.388;2023-12-29T08:10:51;5.90;99.90
19330;DHT22;9799;48.214;16.388;2023-12-29T08:14:12;6.00;99.90
19330;DHT22;9799;48.214;16.388;2023-12-29T08:17:33;6.00;99.90
19330;DHT22;9799;48.214;16.388;2023-12-29T08:20:56;6.00;99.90
19330;DHT22;9799;48.214;16.388;2023-12-29T08:24:19;6.00;99.90
19330;DHT22;9799;48.214;16.388;2023-12-29T08:27:40;6.20;99.90
19330;DHT22;9799;48.214;16.388;2023-12-29T08:31:02;6.30;99.90
19330;DHT22;9799;48.214;16.388;2023-12-29T08:34:23;6.30;99.90
19330;DHT22;9799;48.214;16.388;2023-12-29T08:37:45;6.30;99.90
19330;DHT22;9799;48.214;16.388;2023-12-29T08:41:06;6.30;99.90
19330;DHT22;9799;48.214;16.388;2023-12-29T08:44:27;6.20;99.90
19330;DHT22;9799;48.214;16.388;2023-12-29T08:47:49;6.30;99.90
19330;DHT22;9799;48.214;16.388;2023-12-29T08:51:10;6.30;99.90
19330;DHT22;9799;48.214;16.388;2023-12-29T08:54:32;6.40;99.90
19330;DHT22;9799;48.214;16.388;2023-12-29T08:57:54;6.50;99.90
19330;DHT22;9799;48.214;16.388;2023-12-29T09:01:15;6.50;99.90
19330;DHT22;9799;48.214;16.388;2023-12-29T09:04:36;6.60;99.90
19330;DHT22;9799;48.214;16.388;2023-12-29T09:07:57;6.60;99.90
19330;DHT22;9799;48.214;16.388;2023-12-29T09:11:19;6.70;99.90
19330;DHT22;9799;48.214;16.388;2023-12-29T09:14:41;6.70;99.90
19330;DHT22;9799;48.214;16.388;2023-12-29T09:18:02;6.80;99.90
19330;DHT22;9799;48.214;16.388;2023-12-29T09:21:23;6.90;99.90
19330;DHT22;9799;48.214;16.388;2023-12-29T09:24:44;7.00;99.90
19330;DHT22;9799;48.214;16.388;2023-12-29T09:28:07;7.10;99.90
19330;DHT22;9799;48.214;16.388;2023-12-29T09:31:28;7.10;99.90
19330;DHT22;9799;48.214;16.388;2023-12-29T09:34:49;7.10;99.90
19330;DHT22;9799;48.214;16.388;2023-12-29T09:38:11;7.10;99.90
19330;DHT22;9799;48.214;16.388;2023-12-29T09:41:33;7.20;99.90
19330;DHT22;9799;48.214;16.388;2023-12-29T09:45:02;7.20;99.90
19330;DHT22;9799;48.214;16.388;2023-12-29T09:48:25;7.20;99.90
19330;DHT22;9799;48.214;16.388;2023-12-29T09:51:48;7.30;99.90
19330;DHT22;9799;48.214;16.388;2023-12-29T09:55:11;7.50;99.90
19330;DHT22;9799;48.214;16.388;2023-12-29T09:58:33;7.60;99.90
19330;DHT22;9799;48.214;16.388;2023-12-29T10:01:56;7.60;99.90
19330;DHT22;9799;48.214;16.388;2023-12-29T10:05:17;7.70;99.90
19330;DHT22;9799;48.214;16.388;2023-12-29T10:08:45;7.70;99.90
19330;DHT22;9799;48.214;16.388;2023-12-29T10:12:09;7.80;99.90
19330;DHT22;9799;48.214;16.388;2023-12-29T10:15:40;7.80;99.90
19330;DHT22;9799;48.214;16.388;2023-12-29T10:19:13;7.80;99.90
19330;DHT22;9799;48.214;16.388;2023-12-29T10:22:47;7.80;99.90
19330;DHT22;9799;48.214;16.388;2023-12-29T10:26:11;7.90;99.90
19330;DHT22;9799;48.214;16.388;2023-12-29T10:29:32;8.00;99.90
19330;DHT22;9799;48.214;16.388;2023-12-29T10:32:54;8.20;99.90
19330;DHT22;9799;48.214;16.388;2023-12-29T10:36:16;8.30;99.90
19330;DHT22;9799;48.214;16.388;2023-12-29T10:39:38;8.50;99.90
19330;DHT22;9799;48.214;16.388;2023-12-29T10:42:59;8.70;99.90
19330;DHT22;9799;48.214;16.388;2023-12-29T10:46:25;8.80;99.90
19330;DHT22;9799;48.214;16.388;2023-12-29T10:49:46;8.80;99.90
19330;DHT22;9799;48.214;16.388;2023-12-29T10:53:12;9.00;99.90
19330;DHT22;9799;48.214;16.388;2023-12-29T10:56:34;9.10;99.90
19330;DHT22;9799;48.214;16.388;2023-12-29T10:59:55;9.20;99.90
19330;DHT22;9799;48.214;16.388;2023-12-29T11:03:17;9.40;99.90
19330;DHT22;9799;48.214;16.388;2023-12-29T11:06:42;9.70;99.90
19330;DHT22;9799;48.214;16.388;2023-12-29T11:10:08;9.90;99.90
19330;DHT22;9799;48.214;16.388;2023-12-29T11:13:30;10.00;99.90
19330;DHT22;9799;48.214;16.388;2023-12-29T11:16:54;10.10;99.90
19330;DHT22;9799;48.214;16.388;2023-12-29T11:20:16;10.40;99.90
19330;DHT22;9799;48.214;16.388;2023-12-29T11:23:37;10.60;99.90
19330;DHT22;9799;48.214;16.388;2023-12-29T11:27:00;11.00;99.90
19330;DHT22;9799;48.214;16.388;2023-12-29T11:30:22;11.50;99.90
19330;DHT22;9799;48.214;16.388;2023-12-29T11:33:46;12.20;99.90
19330;DHT22;9799;48.214;16.388;2023-12-29T11:37:30;12.60;99.90
19330;DHT22;9799;48.214;16.388;2023-12-29T11:41:00;12.70;99.90
19330;DHT22;9799;48.214;16.388;2023-12-29T11:44:27;12.70;99.90
19330;DHT22;9799;48.214;16.388;2023-12-29T11:47:51;12.80;99.90
19330;DHT22;9799;48.214;16.388;2023-12-29T11:51:28;12.90;99.90
19330;DHT22;9799;48.214;16.388;2023-12-29T11:54:49;13.20;99.90
19330;DHT22;9799;48.214;16.388;2023-12-29T11:58:24;13.60;99.90
19330;DHT22;9799;48.214;16.388;2023-12-29T12:01:49;13.70;99.90
19330;DHT22;9799;48.214;16.388;2023-12-29T12:05:10;13.70;99.80
19330;DHT22;9799;48.214;16.388;2023-12-29T12:08:36;13.60;99.90
19330;DHT22;9799;48.214;16.388;2023-12-29T12:11:59;13.50;99.90
19330;DHT22;9799;48.214;16.388;2023-12-29T12:15:33;13.30;99.90
19330;DHT22;9799;48.214;16.388;2023-12-29T12:18:57;13.50;99.90
19330;DHT22;9799;48.214;16.388;2023-12-29T12:22:20;13.60;99.20
19330;DHT22;9799;48.214;16.388;2023-12-29T12:25:43;13.60;99.20
19330;DHT22;9799;48.214;16.388;2023-12-29T12:29:07;13.60;98.90
19330;DHT22;9799;48.214;16.388;2023-12-29T12:32:29;13.80;98.50
19330;DHT22;9799;48.214;16.388;2023-12-29T12:36:00;13.80;97.50
19330;DHT22;9799;48.214;16.388;2023-12-29T12:39:21;13.70;97.60
19330;DHT22;9799;48.214;16.388;2023-12-29T12:42:43;13.70;96.80
19330;DHT22;9799;48.214;16.388;2023-12-29T12:46:08;13.80;96.10
19330;DHT22;9799;48.214;16.388;2023-12-29T12:49:30;13.80;95.70
19330;DHT22;9799;48.214;16.388;2023-12-29T12:52:53;13.60;96.00
19330;DHT22;9799;48.214;16.388;2023-12-29T12:56:15;13.50;96.30
19330;DHT22;9799;48.214;16.388;2023-12-29T12:59:39;13.50;96.60
19330;DHT22;9799;48.214;16.388;2023-12-29T13:03:00;13.50;97.20
19330;DHT22;9799;48.214;16.388;2023-12-29T13:06:22;13.40;96.90
19330;DHT22;9799;48.214;16.388;2023-12-29T13:09:45;13.40;97.20
19330;DHT22;9799;48.214;16.388;2023-12-29T13:13:08;13.30;97.80
19330;DHT22;9799;48.214;16.388;2023-12-29T13:16:30;13.50;97.80
19330;DHT22;9799;48.214;16.388;2023-12-29T13:19:56;13.40;96.90
19330;DHT22;9799;48.214;16.388;2023-12-29T13:23:18;13.40;97.30
19330;DHT22;9799;48.214;16.388;2023-12-29T13:26:47;13.30;97.60
19330;DHT22;9799;48.214;16.388;2023-12-29T13:30:25;13.30;98.40
19330;DHT22;9799;48.214;16.388;2023-12-29T13:33:51;13.30;97.70
19330;DHT22;9799;48.214;16.388;2023-12-29T13:37:25;13.20;97.90
19330;DHT22;9799;48.214;16.388;2023-12-29T13:41:01;13.20;98.40
19330;DHT22;9799;48.214;16.388;2023-12-29T13:44:34;13.20;99.50
19330;DHT22;9799;48.214;16.388;2023-12-29T13:47:58;13.00;99.10
19330;DHT22;9799;48.214;16.388;2023-12-29T13:51:23;13.00;99.90
19330;DHT22;9799;48.214;16.388;2023-12-29T13:54:45;12.80;99.90
19330;DHT22;9799;48.214;16.388;2023-12-29T13:58:09;12.70;99.90
19330;DHT22;9799;48.214;16.388;2023-12-29T14:01:36;12.60;99.90
19330;DHT22;9799;48.214;16.388;2023-12-29T14:05:18;12.50;99.90
19330;DHT22;9799;48.214;16.388;2023-12-29T14:08:41;12.50;99.90
19330;DHT22;9799;48.214;16.388;2023-12-29T14:12:06;12.40;99.90
19330;DHT22;9799;48.214;16.388;2023-12-29T14:15:34;12.40;99.90
19330;DHT22;9799;48.214;16.388;2023-12-29T14:18:57;12.30;99.90
19330;DHT22;9799;48.214;16.388;2023-12-29T14:22:22;12.30;99.90
19330;DHT22;9799;48.214;16.388;2023-12-29T14:25:43;12.30;99.90
19330;DHT22;9799;48.214;16.388;2023-12-29T14:29:07;12.20;99.90
19330;DHT22;9799;48.214;16.388;2023-12-29T14:32:29;12.20;99.90
19330;DHT22;9799;48.214;16.388;2023-12-29T14:35:52;12.20;99.90
19330;DHT22;9799;48.214;16.388;2023-12-29T14:39:13;12.10;99.90
19330;DHT22;9799;48.214;16.388;2023-12-29T14:42:35;12.10;99.90
19330;DHT22;9799;48.214;16.388;2023-12-29T14:45:56;12.10;99.90
19330;DHT22;9799;48.214;16.388;2023-12-29T14:49:17;12.20;99.90
19330;DHT22;9799;48.214;16.388;2023-12-29T14:52:40;12.80;99.90
19330;DHT22;9799;48.214;16.388;2023-12-29T14:56:01;12.90;99.90
19330;DHT22;9799;48.214;16.388;2023-12-29T14:59:22;13.00;99.90
19330;DHT22;9799;48.214;16.388;2023-12-29T15:02:43;12.90;99.90
19330;DHT22;9799;48.214;16.388;2023-12-29T15:06:05;12.90;99.90
19330;DHT22;9799;48.214;16.388;2023-12-29T15:09:28;12.80;99.90
19330;DHT22;9799;48.214;16.388;2023-12-29T15:12:49;12.90;99.90
19330;DHT22;9799;48.214;16.388;2023-12-29T15:16:11;12.80;99.90
19330;DHT22;9799;48.214;16.388;2023-12-29T15:19:32;12.70;99.90
19330;DHT22;9799;48.214;16.388;2023-12-29T15:22:53;12.70;99.90
19330;DHT22;9799;48.214;16.388;2023-12-29T15:26:16;12.80;99.90
19330;DHT22;9799;48.214;16.388;2023-12-29T15:29:38;12.80;99.90
19330;DHT22;9799;48.214;16.388;2023-12-29T15:32:59;12.90;99.90
19330;DHT22;9799;48.214;16.388;2023-12-29T15:36:21;12.90;99.90
19330;DHT22;9799;48.214;16.388;2023-12-29T15:39:42;12.90;99.90
19330;DHT22;9799;48.214;16.388;2023-12-29T15:43:05;12.80;99.90
19330;DHT22;9799;48.214;16.388;2023-12-29T15:46:27;12.70;99.90
19330;DHT22;9799;48.214;16.388;2023-12-29T15:49:48;12.70;99.90
19330;DHT22;9799;48.214;16.388;2023-12-29T15:53:09;12.70;99.90
19330;DHT22;9799;48.214;16.388;2023-12-29T15:56:31;12.60;99.90
19330;DHT22;9799;48.214;16.388;2023-12-29T15:59:53;12.80;99.90
19330;DHT22;9799;48.214;16.388;2023-12-29T16:03:15;12.90;99.90
19330;DHT22;9799;48.214;16.388;2023-12-29T16:06:36;12.90;99.90
19330;DHT22;9799;48.214;16.388;2023-12-29T16:09:58;12.90;99.90
19330;DHT22;9799;48.214;16.388;2023-12-29T16:13:19;12.80;99.90
19330;DHT22;9799;48.214;16.388;2023-12-29T16:16:42;13.00;99.90
19330;DHT22;9799;48.214;16.388;2023-12-29T16:20:03;12.80;99.90
19330;DHT22;9799;48.214;16.388;2023-12-29T16:23:25;12.70;99.90
19330;DHT22;9799;48.214;16.388;2023-12-29T16:26:46;12.70;99.90
19330;DHT22;9799;48.214;16.388;2023-12-29T16:30:08;12.80;99.90
19330;DHT22;9799;48.214;16.388;2023-12-29T16:33:30;12.70;99.90
19330;DHT22;9799;48.214;16.388;2023-12-29T16:36:56;12.70;99.90
19330;DHT22;9799;48.214;16.388;2023-12-29T16:40:18;12.60;99.90
19330;DHT22;9799;48.214;16.388;2023-12-29T16:43:39;12.40;99.90
19330;DHT22;9799;48.214;16.388;2023-12-29T16:47:00;12.30;99.90
19330;DHT22;9799;48.214;16.388;2023-12-29T16:50:24;12.20;99.90
19330;DHT22;9799;48.214;16.388;2023-12-29T16:53:46;12.10;99.90
19330;DHT22;9799;48.214;16.388;2023-12-29T16:57:08;12.10;99.90
19330;DHT22;9799;48.214;16.388;2023-12-29T17:00:30;12.00;99.90
19330;DHT22;9799;48.214;16.388;2023-12-29T17:03:53;11.90;99.90
19330;DHT22;9799;48.214;16.388;2023-12-29T17:07:16;11.70;99.90
19330;DHT22;9799;48.214;16.388;2023-12-29T17:10:37;11.50;99.90
19330;DHT22;9799;48.214;16.388;2023-12-29T17:13:58;11.40;99.90
19330;DHT22;9799;48.214;16.388;2023-12-29T17:17:20;11.30;99.90
19330;DHT22;9799;48.214;16.388;2023-12-29T17:20:41;11.20;99.90
19330;DHT22;9799;48.214;16.388;2023-12-29T17:24:04;11.10;99.90
19330;DHT22;9799;48.214;16.388;2023-12-29T17:27:25;11.10;99.90
19330;DHT22;9799;48.214;16.388;2023-12-29T17:30:47;11.00;99.90
19330;DHT22;9799;48.214;16.388;2023-12-29T17:34:08;11.00;99.90
19330;DHT22;9799;48.214;16.388;2023-12-29T17:37:29;10.90;99.90
19330;DHT22;9799;48.214;16.388;2023-12-29T17:40:53;10.90;99.90
19330;DHT22;9799;48.214;16.388;2023-12-29T17:44:14;10.80;99.90
19330;DHT22;9799;48.214;16.388;2023-12-29T17:47:35;10.80;99.90
19330;DHT22;9799;48.214;16.388;2023-12-29T17:50:57;10.80;99.90
19330;DHT22;9799;48.214;16.388;2023-12-29T17:54:18;10.80;99.90
19330;DHT22;9799;48.214;16.388;2023-12-29T17:57:41;10.80;99.90
19330;DHT22;9799;48.214;16.388;2023-12-29T18:01:02;10.70;99.90
19330;DHT22;9799;48.214;16.388;2023-12-29T18:04:23;10.70;99.90
19330;DHT22;9799;48.214;16.388;2023-12-29T18:07:44;10.70;99.90
19330;DHT22;9799;48.214;16.388;2023-12-29T18:11:05;10.60;99.90
19330;DHT22;9799;48.214;16.388;2023-12-29T18:14:28;10.60;99.90
19330;DHT22;9799;48.214;16.388;2023-12-29T18:17:49;10.60;99.90
19330;DHT22;9799;48.214;16.388;2023-12-29T18:21:10;10.60;99.90
19330;DHT22;9799;48.214;16.388;2023-12-29T18:24:35;10.60;99.90
19330;DHT22;9799;48.214;16.388;2023-12-29T18:27:57;10.60;99.90
19330;DHT22;9799;48.214;16.388;2023-12-29T18:31:19;10.60;99.90
19330;DHT22;9799;48.214;16.388;2023-12-29T18:34:40;10.60;99.90
19330;DHT22;9799;48.214;16.388;2023-12-29T18:38:01;10.70;99.90
19330;DHT22;9799;48.214;16.388;2023-12-29T18:41:23;10.70;99.90
19330;DHT22;9799;48.214;16.388;2023-12-29T18:44:44;10.70;99.90
19330;DHT22;9799;48.214;16.388;2023-12-29T18:48:07;10.70;99.90
19330;DHT22;9799;48.214;16.388;2023-12-29T18:51:28;10.70;99.90
19330;DHT22;9799;48.214;16.388;2023-12-29T18:54:50;10.60;99.90
19330;DHT22;9799;48.214;16.388;2023-12-29T18:58:11;10.30;99.90
19330;DHT22;9799;48.214;16.388;2023-12-29T19:01:32;10.30;99.90
19330;DHT22;9799;48.214;16.388;2023-12-29T19:04:55;10.20;99.90
19330;DHT22;9799;48.214;16.388;2023-12-29T19:08:16;10.20;99.90
19330;DHT22;9799;48.214;16.388;2023-12-29T19:11:37;10.30;99.90
19330;DHT22;9799;48.214;16.388;2023-12-29T19:14:58;10.30;99.90
19330;DHT22;9799;48.214;16.388;2023-12-29T19:18:20;10.30;99.90
19330;DHT22;9799;48.214;16.388;2023-12-29T19:21:42;10.30;99.90
19330;DHT22;9799;48.214;16.388;2023-12-29T19:25:05;10.30;99.90
19330;DHT22;9799;48.214;16.388;2023-12-29T19:28:26;10.20;99.90
19330;DHT22;9799;48.214;16.388;2023-12-29T19:31:48;10.10;99.90
19330;DHT22;9799;48.214;16.388;2023-12-29T19:35:09;10.10;99.90
19330;DHT22;9799;48.214;16.388;2023-12-29T19:38:32;10.10;99.90
19330;DHT22;9799;48.214;16.388;2023-12-29T19:41:53;10.10;99.90
19330;DHT22;9799;48.214;16.388;2023-12-29T19:45:28;10.10;99.90
19330;DHT22;9799;48.214;16.388;2023-12-29T19:48:50;10.10;99.90
19330;DHT22;9799;48.214;16.388;2023-12-29T19:52:13;10.00;99.90
19330;DHT22;9799;48.214;16.388;2023-12-29T19:55:36;10.00;99.90
19330;DHT22;9799;48.214;16.388;2023-12-29T19:58:58;9.80;99.90
19330;DHT22;9799;48.214;16.388;2023-12-29T20:02:19;9.40;99.90
19330;DHT22;9799;48.214;16.388;2023-12-29T20:05:42;9.30;99.90
19330;DHT22;9799;48.214;16.388;2023-12-29T20:09:04;9.10;99.90
19330;DHT22;9799;48.214;16.388;2023-12-29T20:12:28;9.00;99.90
19330;DHT22;9799;48.214;16.388;2023-12-29T20:15:49;8.90;99.90
19330;DHT22;9799;48.214;16.388;2023-12-29T20:19:10;8.80;99.90
19330;DHT22;9799;48.214;16.388;2023-12-29T20:22:32;8.70;99.90
19330;DHT22;9799;48.214;16.388;2023-12-29T20:25:53;8.60;99.90
19330;DHT22;9799;48.214;16.388;2023-12-29T20:29:18;8.40;99.90
19330;DHT22;9799;48.214;16.388;2023-12-29T20:32:40;8.40;99.90
19330;DHT22;9799;48.214;16.388;2023-12-29T20:36:02;8.30;99.90
19330;DHT22;9799;48.214;16.388;2023-12-29T20:39:23;8.30;99.90
19330;DHT22;9799;48.214;16.388;2023-12-29T20:42:46;8.30;99.90
19330;DHT22;9799;48.214;16.388;2023-12-29T20:46:09;8.30;99.90
19330;DHT22;9799;48.214;16.388;2023-12-29T20:49:30;8.30;99.90
19330;DHT22;9799;48.214;16.388;2023-12-29T20:52:51;8.30;99.90
19330;DHT22;9799;48.214;16.388;2023-12-29T20:56:13;8.20;99.90
19330;DHT22;9799;48.214;16.388;2023-12-29T20:59:35;8.10;99.90
19330;DHT22;9799;48.214;16.388;2023-12-29T21:03:00;8.10;99.90
19330;DHT22;9799;48.214;16.388;2023-12-29T21:06:22;8.00;99.90
19330;DHT22;9799;48.214;16.388;2023-12-29T21:09:44;7.90;99.90
19330;DHT22;9799;48.214;16.388;2023-12-29T21:13:06;7.80;99.90
19330;DHT22;9799;48.214;16.388;2023-12-29T21:16:28;7.80;99.90
19330;DHT22;9799;48.214;16.388;2023-12-29T21:19:50;7.70;99.90
19330;DHT22;9799;48.214;16.388;2023-12-29T21:23:11;7.60;99.90
19330;DHT22;9799;48.214;16.388;2023-12-29T21:26:33;7.50;99.90
19330;DHT22;9799;48.214;16.388;2023-12-29T21:29:55;7.60;99.90
19330;DHT22;9799;48.214;16.388;2023-12-29T21:33:16;7.50;99.90